sensor_id;sensor_type;location;lat;lon;timestamp;temperature;humidity
8269;DHT22;4174;48.304;16.364;2024-01-30T00:02:43;2.30;99.90
8269;DHT22;4174;48.304;16.364;2024-01-30T00:08:46;2.30;99.90
8269;DHT22;4174;48.304;16.364;2024-01-30T00:14:49;2.20;99.90
8269;DHT22;4174;48.304;16.364;2024-01-30T00:20:53;2.20;99.90
8269;DHT22;4174;48.304;16.364;2024-01-30T00:26:57;2.20;99.90
8269;DHT22;4174;48.304;16.364;2024-01-30T00:33:01;2.20;99.90
8269;DHT22;4174;48.304;16.364;2024-01-30T00:39:05;2.20;99.90
8269;DHT22;4174;48.304;16.364;2024-01-30T00:45:16;2.20;99.90
8269;DHT22;4174;48.304;16.364;2024-01-30T00:51:19;2.20;99.90
8269;DHT22;4174;48.304;16.364;2024-01-30T00:57:23;2.40;99.90
8269;DHT22;4174;48.304;16.364;2024-01-30T01:03:26;2.50;99.90
8269;DHT22;4174;48.304;16.364;2024-01-30T01:09:31;2.40;99.90
8269;DHT22;4174;48.304;16.364;2024-01-30T01:15:34;2.30;99.90
8269;DHT22;4174;48.304;16.364;2024-01-30T01:21:37;2.20;99.90
8269;DHT22;4174;48.304;16.364;2024-01-30T01:27:41;2.30;99.90
8269;DHT22;4174;48.304;16.364;2024-01-30T01:33:45;2.30;99.90
8269;DHT22;4174;48.304;16.364;2024-01-30T01:39:48;2.30;99.90
8269;DHT22;4174;48.304;16.364;2024-01-30T01:45:52;2.30;99.90
8269;DHT22;4174;48.304;16.364;2024-01-30T01:51:57;2.20;99.90
8269;DHT22;4174;48.304;16.364;2024-01-30T01:58:00;2.20;99.90
8269;DHT22;4174;48.304;16.364;2024-01-30T02:04:04;2.10;99.90
8269;DHT22;4174;48.304;16.364;2024-01-30T02:10:08;2.20;99.90
8269;DHT22;4174;48.304;16.364;2024-01-30T02:16:12;2.10;99.90
8269;DHT22;4174;48.304;16.364;2024-01-30T02:22:15;2.10;99.90
8269;DHT22;4174;48.304;16.364;2024-01-30T02:28:19;2.10;99.90
8269;DHT22;4174;48.304;16.364;2024-01-30T02:34:21;2.10;99.90
8269;DHT22;4174;48.304;16.364;2024-01-30T02:40:25;2.00;99.90
8269;DHT22;4174;48.304;16.364;2024-01-30T02:46:28;2.00;99.90
8269;DHT22;4174;48.304;16.364;2024-01-30T02:52:32;2.00;99.90
8269;DHT22;4174;48.304;16.364;2024-01-30T02:58:36;2.00;99.90
8269;DHT22;4174;48.304;16.364;2024-01-30T03:04:42;1.90;99.90
8269;DHT22;4174;48.304;16.364;2024-01-30T03:10:46;1.90;99.90
8269;DHT22;4174;48.304;16.364;2024-01-30T03:16:50;1.90;99.90
8269;DHT22;4174;48.304;16.364;2024-01-30T03:22:53;1.90;99.90
8269;DHT22;4174;48.304;16.364;2024-01-30T03:28:57;1.90;99.90
8269;DHT22;4174;48.304;16.364;2024-01-30T03:35:00;1.80;99.90
8269;DHT22;4174;48.304;16.364;2024-01-30T03:41:07;1.70;99.90
8269;DHT22;4174;48.304;16.364;2024-01-30T03:47:07;1.70;99.90
8269;DHT22;4174;48.304;16.364;2024-01-30T03:53:12;1.60;99.90
8269;DHT22;4174;48.304;16.364;2024-01-30T03:59:16;1.50;99.90
8269;DHT22;4174;48.304;16.364;2024-01-30T04:05:19;1.60;99.90
8269;DHT22;4174;48.304;16.364;2024-01-30T04:11:24;1.20;99.90
8269;DHT22;4174;48.304;16.364;2024-01-30T04:17:28;1.20;99.90
8269;DHT22;4174;48.304;16.364;2024-01-30T04:23:32;1.10;99.90
8269;DHT22;4174;48.304;16.364;2024-01-30T04:29:36;1.10;99.90
8269;DHT22;4174;48.304;16.364;2024-01-30T04:35:39;1.30;99.90
8269;DHT22;4174;48.304;16.364;2024-01-30T04:41:43;1.30;99.90
8269;DHT22;4174;48.304;16.364;2024-01-30T04:47:48;1.40;99.90
8269;DHT22;4174;48.304;16.364;2024-01-30T04:53:51;1.30;99.90
8269;DHT22;4174;48.304;16.364;2024-01-30T04:59:55;1.40;99.90
8269;DHT22;4174;48.304;16.364;2024-01-30T05:06:00;1.40;99.90
8269;DHT22;4174;48.304;16.364;2024-01-30T05:12:05;1.40;99.90
8269;DHT22;4174;48.304;16.364;2024-01-30T05:18:09;1.30;99.90
8269;DHT22;4174;48.304;16.364;2024-01-30T05:24:14;1.30;99.90
8269;DHT22;4174;48.304;16.364;2024-01-30T05:30:17;1.30;99.90
8269;DHT22;4174;48.304;16.364;2024-01-30T05:36:21;1.30;99.90
8269;DHT22;4174;48.304;16.364;2024-01-30T05:42:27;1.20;99.90
8269;DHT22;4174;48.304;16.364;2024-01-30T05:48:29;1.20;99.90
8269;DHT22;4174;48.304;16.364;2024-01-30T05:54:32;1.10;99.90
8269;DHT22;4174;48.304;16.364;2024-01-30T06:00:36;1.00;99.90
8269;DHT22;4174;48.304;16.364;2024-01-30T06:06:40;1.00;99.90
8269;DHT22;4174;48.304;16.364;2024-01-30T06:12:43;0.90;99.90
8269;DHT22;4174;48.304;16.364;2024-01-30T06:18:48;0.80;99.90
8269;DHT22;4174;48.304;16.364;2024-01-30T06:24:51;0.60;99.90
8269;DHT22;4174;48.304;16.364;2024-01-30T06:30:55;0.60;99.90
8269;DHT22;4174;48.304;16.364;2024-01-30T06:36:59;0.60;99.90
8269;DHT22;4174;48.304;16.364;2024-01-30T06:43:04;0.80;99.90
8269;DHT22;4174;48.304;16.364;2024-01-30T06:49:06;0.90;99.90
8269;DHT22;4174;48.304;16.364;2024-01-30T06:55:10;0.90;99.90
8269;DHT22;4174;48.304;16.364;2024-01-30T07:01:14;1.00;99.90
8269;DHT22;4174;48.304;16.364;2024-01-30T07:07:17;1.00;99.90
8269;DHT22;4174;48.304;16.364;2024-01-30T07:13:20;1.10;99.90
8269;DHT22;4174;48.304;16.364;2024-01-30T07:19:25;1.10;99.90
8269;DHT22;4174;48.304;16.364;2024-01-30T07:25:29;1.10;99.90
8269;DHT22;4174;48.304;16.364;2024-01-30T07:31:32;1.30;99.90
8269;DHT22;4174;48.304;16.364;2024-01-30T07:37:36;1.50;99.90
8269;DHT22;4174;48.304;16.364;2024-01-30T07:43:40;1.60;99.90
8269;DHT22;4174;48.304;16.364;2024-01-30T07:49:44;2.00;99.90
8269;DHT22;4174;48.304;16.364;2024-01-30T07:55:47;2.20;99.90
8269;DHT22;4174;48.304;16.364;2024-01-30T08:01:51;2.70;99.90
8269;DHT22;4174;48.304;16.364;2024-01-30T08:07:55;3.30;99.90
8269;DHT22;4174;48.304;16.364;2024-01-30T08:13:59;3.70;99.90
8269;DHT22;4174;48.304;16.364;2024-01-30T08:20:03;4.50;99.90
8269;DHT22;4174;48.304;16.364;2024-01-30T08:26:08;5.70;99.90
8269;DHT22;4174;48.304;16.364;2024-01-30T08:32:11;6.10;99.90
8269;DHT22;4174;48.304;16.364;2024-01-30T08:38:15;6.90;99.90
8269;DHT22;4174;48.304;16.364;2024-01-30T08:44:19;7.20;99.90
8269;DHT22;4174;48.304;16.364;2024-01-30T08:50:24;7.40;99.90
8269;DHT22;4174;48.304;16.364;2024-01-30T08:56:28;7.00;99.90
8269;DHT22;4174;48.304;16.364;2024-01-30T09:02:32;7.30;99.90
8269;DHT22;4174;48.304;16.364;2024-01-30T09:08:35;8.90;99.90
8269;DHT22;4174;48.304;16.364;2024-01-30T09:14:39;9.30;99.90
8269;DHT22;4174;48.304;16.364;2024-01-30T09:20:42;7.70;99.90
8269;DHT22;4174;48.304;16.364;2024-01-30T09:26:46;8.50;99.90
8269;DHT22;4174;48.304;16.364;2024-01-30T09:32:50;10.00;99.60
8269;DHT22;4174;48.304;16.364;2024-01-30T09:38:56;9.50;99.90
8269;DHT22;4174;48.304;16.364;2024-01-30T09:45:00;8.60;99.90
8269;DHT22;4174;48.304;16.364;2024-01-30T09:51:04;8.10;99.90
8269;DHT22;4174;48.304;16.364;2024-01-30T09:57:09;9.50;99.90
8269;DHT22;4174;48.304;16.364;2024-01-30T10:03:14;9.20;99.50
8269;DHT22;4174;48.304;16.364;2024-01-30T10:09:18;9.20;99.50
8269;DHT22;4174;48.304;16.364;2024-01-30T10:15:22;8.10;99.90
8269;DHT22;4174;48.304;16.364;2024-01-30T10:21:26;8.00;99.90
8269;DHT22;4174;48.304;16.364;2024-01-30T10:27:30;8.70;99.90
8269;DHT22;4174;48.304;16.364;2024-01-30T10:33:34;8.10;99.90
8269;DHT22;4174;48.304;16.364;2024-01-30T10:39:39;9.50;99.90
8269;DHT22;4174;48.304;16.364;2024-01-30T10:45:43;11.20;96.50
8269;DHT22;4174;48.304;16.364;2024-01-30T10:51:46;12.00;92.30
8269;DHT22;4174;48.304;16.364;2024-01-30T10:57:51;12.60;87.60
8269;DHT22;4174;48.304;16.364;2024-01-30T11:03:54;11.70;91.40
8269;DHT22;4174;48.304;16.364;2024-01-30T11:10:03;12.50;86.30
8269;DHT22;4174;48.304;16.364;2024-01-30T11:16:08;12.00;85.10
8269;DHT22;4174;48.304;16.364;2024-01-30T11:22:10;12.30;85.80
8269;DHT22;4174;48.304;16.364;2024-01-30T11:28:14;11.60;90.30
8269;DHT22;4174;48.304;16.364;2024-01-30T11:34:17;11.10;89.20
8269;DHT22;4174;48.304;16.364;2024-01-30T11:40:20;11.00;92.60
8269;DHT22;4174;48.304;16.364;2024-01-30T11:46:24;10.70;91.60
8269;DHT22;4174;48.304;16.364;2024-01-30T11:52:26;10.90;92.20
8269;DHT22;4174;48.304;16.364;2024-01-30T11:58:29;11.20;90.80
8269;DHT22;4174;48.304;16.364;2024-01-30T12:04:33;10.50;94.50
8269;DHT22;4174;48.304;16.364;2024-01-30T12:10:36;11.00;92.70
8269;DHT22;4174;48.304;16.364;2024-01-30T12:16:40;11.40;89.70
8269;DHT22;4174;48.304;16.364;2024-01-30T12:22:44;10.80;91.10
8269;DHT22;4174;48.304;16.364;2024-01-30T12:28:49;10.60;92.80
8269;DHT22;4174;48.304;16.364;2024-01-30T12:34:55;10.90;93.80
8269;DHT22;4174;48.304;16.364;2024-01-30T12:40:58;10.10;92.90
8269;DHT22;4174;48.304;16.364;2024-01-30T12:47:03;10.40;92.80
8269;DHT22;4174;48.304;16.364;2024-01-30T12:53:08;10.80;92.30
8269;DHT22;4174;48.304;16.364;2024-01-30T12:59:12;10.40;92.50
8269;DHT22;4174;48.304;16.364;2024-01-30T13:05:16;10.80;92.50
8269;DHT22;4174;48.304;16.364;2024-01-30T13:11:20;10.70;92.00
8269;DHT22;4174;48.304;16.364;2024-01-30T13:17:24;10.20;94.80
8269;DHT22;4174;48.304;16.364;2024-01-30T13:23:28;10.30;94.00
8269;DHT22;4174;48.304;16.364;2024-01-30T13:29:32;10.70;90.90
8269;DHT22;4174;48.304;16.364;2024-01-30T13:35:35;10.20;91.40
8269;DHT22;4174;48.304;16.364;2024-01-30T13:41:39;9.50;94.50
8269;DHT22;4174;48.304;16.364;2024-01-30T13:47:43;9.30;93.60
8269;DHT22;4174;48.304;16.364;2024-01-30T13:53:47;9.30;93.60
8269;DHT22;4174;48.304;16.364;2024-01-30T13:59:51;9.30;92.70
8269;DHT22;4174;48.304;16.364;2024-01-30T14:05:55;9.00;94.90
8269;DHT22;4174;48.304;16.364;2024-01-30T14:11:58;8.80;94.80
8269;DHT22;4174;48.304;16.364;2024-01-30T14:18:02;8.90;94.20
8269;DHT22;4174;48.304;16.364;2024-01-30T14:24:06;9.00;94.60
8269;DHT22;4174;48.304;16.364;2024-01-30T14:30:12;9.30;95.50
8269;DHT22;4174;48.304;16.364;2024-01-30T14:36:15;9.30;95.50
8269;DHT22;4174;48.304;16.364;2024-01-30T14:42:19;8.70;96.80
8269;DHT22;4174;48.304;16.364;2024-01-30T14:48:23;8.60;97.90
8269;DHT22;4174;48.304;16.364;2024-01-30T14:54:27;8.60;98.10
8269;DHT22;4174;48.304;16.364;2024-01-30T15:00:30;8.70;98.20
8269;DHT22;4174;48.304;16.364;2024-01-30T15:06:34;8.80;98.90
8269;DHT22;4174;48.304;16.364;2024-01-30T15:12:37;8.60;98.80
8269;DHT22;4174;48.304;16.364;2024-01-30T15:18:40;8.00;99.90
8269;DHT22;4174;48.304;16.364;2024-01-30T15:24:44;7.80;99.90
8269;DHT22;4174;48.304;16.364;2024-01-30T15:30:48;7.80;99.90
8269;DHT22;4174;48.304;16.364;2024-01-30T15:36:51;7.50;99.90
8269;DHT22;4174;48.304;16.364;2024-01-30T15:42:54;7.60;99.90
8269;DHT22;4174;48.304;16.364;2024-01-30T15:49:00;7.10;99.90
8269;DHT22;4174;48.304;16.364;2024-01-30T15:55:04;7.10;99.90
8269;DHT22;4174;48.304;16.364;2024-01-30T16:01:09;6.60;99.90
8269;DHT22;4174;48.304;16.364;2024-01-30T16:07:12;6.60;99.90
8269;DHT22;4174;48.304;16.364;2024-01-30T16:13:15;6.30;99.90
8269;DHT22;4174;48.304;16.364;2024-01-30T16:19:20;6.10;99.90
8269;DHT22;4174;48.304;16.364;2024-01-30T16:25:22;6.00;99.90
8269;DHT22;4174;48.304;16.364;2024-01-30T16:31:26;5.90;99.90
8269;DHT22;4174;48.304;16.364;2024-01-30T16:37:29;5.80;99.90
8269;DHT22;4174;48.304;16.364;2024-01-30T16:43:33;5.80;99.90
8269;DHT22;4174;48.304;16.364;2024-01-30T16:49:37;5.50;99.90
8269;DHT22;4174;48.304;16.364;2024-01-30T16:55:41;5.40;99.90
8269;DHT22;4174;48.304;16.364;2024-01-30T17:01:45;5.30;99.90
8269;DHT22;4174;48.304;16.364;2024-01-30T17:07:50;5.20;99.90
8269;DHT22;4174;48.304;16.364;2024-01-30T17:13:53;5.00;99.90
8269;DHT22;4174;48.304;16.364;2024-01-30T17:19:57;4.80;99.90
8269;DHT22;4174;48.304;16.364;2024-01-30T17:26:02;4.70;99.90
8269;DHT22;4174;48.304;16.364;2024-01-30T17:32:07;4.60;99.90
8269;DHT22;4174;48.304;16.364;2024-01-30T17:38:11;4.40;99.90
8269;DHT22;4174;48.304;16.364;2024-01-30T17:44:15;4.20;99.90
8269;DHT22;4174;48.304;16.364;2024-01-30T17:50:19;4.10;99.90
8269;DHT22;4174;48.304;16.364;2024-01-30T17:56:24;4.00;99.90
8269;DHT22;4174;48.304;16.364;2024-01-30T18:02:28;3.90;99.90
8269;DHT22;4174;48.304;16.364;2024-01-30T18:08:32;3.90;99.90
8269;DHT22;4174;48.304;16.364;2024-01-30T18:14:36;3.90;99.90
8269;DHT22;4174;48.304;16.364;2024-01-30T18:20:40;3.80;99.90
8269;DHT22;4174;48.304;16.364;2024-01-30T18:26:44;3.80;99.90
8269;DHT22;4174;48.304;16.364;2024-01-30T18:32:48;3.80;99.90
8269;DHT22;4174;48.304;16.364;2024-01-30T18:38:51;3.80;99.90
8269;DHT22;4174;48.304;16.364;2024-01-30T18:44:54;3.70;99.90
8269;DHT22;4174;48.304;16.364;2024-01-30T18:50:58;3.60;99.90
8269;DHT22;4174;48.304;16.364;2024-01-30T18:57:03;3.60;99.90
8269;DHT22;4174;48.304;16.364;2024-01-30T19:03:07;3.70;99.90
8269;DHT22;4174;48.304;16.364;2024-01-30T19:09:12;3.50;99.90
8269;DHT22;4174;48.304;16.364;2024-01-30T19:15:15;3.50;99.90
8269;DHT22;4174;48.304;16.364;2024-01-30T19:21:20;3.60;99.90
8269;DHT22;4174;48.304;16.364;2024-01-30T19:27:24;3.50;99.90
8269;DHT22;4174;48.304;16.364;2024-01-30T19:33:27;3.60;99.90
8269;DHT22;4174;48.304;16.364;2024-01-30T19:39:31;3.70;99.90
8269;DHT22;4174;48.304;16.364;2024-01-30T19:45:35;3.60;99.90
8269;DHT22;4174;48.304;16.364;2024-01-30T19:51:38;3.60;99.90
8269;DHT22;4174;48.304;16.364;2024-01-30T19:57:43;3.60;99.90
8269;DHT22;4174;48.304;16.364;2024-01-30T20:03:47;3.60;99.90
8269;DHT22;4174;48.304;16.364;2024-01-30T20:09:51;3.60;99.90
8269;DHT22;4174;48.304;16.364;2024-01-30T20:15:55;3.40;99.90
8269;DHT22;4174;48.304;16.364;2024-01-30T20:21:59;3.40;99.90
8269;DHT22;4174;48.304;16.364;2024-01-30T20:28:05;3.40;99.90
8269;DHT22;4174;48.304;16.364;2024-01-30T20:34:09;3.60;99.90
8269;DHT22;4174;48.304;16.364;2024-01-30T20:40:12;3.60;99.90
8269;DHT22;4174;48.304;16.364;2024-01-30T20:46:16;3.80;99.90
8269;DHT22;4174;48.304;16.364;2024-01-30T20:52:19;3.90;99.90
8269;DHT22;4174;48.304;16.364;2024-01-30T20:58:24;4.20;99.90
8269;DHT22;4174;48.304;16.364;2024-01-30T21:04:27;4.10;99.90
8269;DHT22;4174;48.304;16.364;2024-01-30T21:10:31;3.80;99.90
8269;DHT22;4174;48.304;16.364;2024-01-30T21:16:35;3.70;99.90
8269;DHT22;4174;48.304;16.364;2024-01-30T21:22:39;3.50;99.90
8269;DHT22;4174;48.304;16.364;2024-01-30T21:28:41;3.30;99.90
8269;DHT22;4174;48.304;16.364;2024-01-30T21:34:46;3.00;99.90
8269;DHT22;4174;48.304;16.364;2024-01-30T21:40:50;3.00;99.90
8269;DHT22;4174;48.304;16.364;2024-01-30T21:46:53;3.00;99.90
8269;DHT22;4174;48.304;16.364;2024-01-30T21:52:57;2.50;99.90
8269;DHT22;4174;48.304;16.364;2024-01-30T21:59:01;2.50;99.90
8269;DHT22;4174;48.304;16.364;2024-01-30T22:05:06;2.30;99.90
8269;DHT22;4174;48.304;16.364;2024-01-30T22:11:10;1.60;99.90
8269;DHT22;4174;48.304;16.364;2024-01-30T22:17:13;1.60;99.90
8269;DHT22;4174;48.304;16.364;2024-01-30T22:23:17;1.60;99.90
8269;DHT22;4174;48.304;16.364;2024-01-30T22:29:21;1.80;99.90
8269;DHT22;4174;48.304;16.364;2024-01-30T22:35:25;1.50;99.90
8269;DHT22;4174;48.304;16.364;2024-01-30T22:41:29;1.40;99.90
8269;DHT22;4174;48.304;16.364;2024-01-30T22:47:33;1.50;99.90
8269;DHT22;4174;48.304;16.364;2024-01-30T22:53:37;1.40;99.90
8269;DHT22;4174;48.304;16.364;2024-01-30T22:59:40;1.20;99.90
8269;DHT22;4174;48.304;16.364;2024-01-30T23:05:43;1.20;99.90
8269;DHT22;4174;48.304;16.364;2024-01-30T23:11:48;0.90;99.90
8269;DHT22;4174;48.304;16.364;2024-01-30T23:17:52;0.70;99.90
8269;DHT22;4174;48.304;16.364;2024-01-30T23:23:56;0.30;99.90
8269;DHT22;4174;48.304;16.364;2024-01-30T23:29:59;-0.10;99.90
8269;DHT22;4174;48.304;16.364;2024-01-30T23:36:05;-0.30;99.90
8269;DHT22;4174;48.304;16.364;2024-01-30T23:42:09;-0.20;99.90
8269;DHT22;4174;48.304;16.364;2024-01-30T23:48:12;-0.20;99.90
8269;DHT22;4174;48.304;16.364;2024-01-30T23:54:16;-0.20;99.90
